STW123 LTFM-UUBW
Flight info
| Callsign | STW123 |
|---|---|
| Flight time | N/A |
| Altitude | 36000 |
| Route | IBLAX P727 BGS L622 KOMAN DCT KARIL DCT KENIN DCT KEFIR DCT DOGIG L999 BIGLU/K0850F340 T406 RAVOK T52 BILRU BILRU2W |
| Aircraft | B38M/M-SDE1FGHILORVWXY/HB1 |
Departure
| Time | N/A |
|---|---|
| Airport | İstanbul Airport (LTFM) |
Arrival
| Time | 2026-05-04 10:40 |
|---|---|
| Airport | Zhukovsky International Airport (UUBW) |
| Time | Latitude | Longitude | Altitude | Speed | Heading |
|---|---|---|---|---|---|
| 2026-05-04 10:02 | 55.13510 | 33.83092 | 36943 ft | 468 kts | 73° |
| 2026-05-04 10:04 | 55.19365 | 34.21536 | 36933 ft | 468 kts | 73° |
| 2026-05-04 10:04 | 55.21017 | 34.32574 | 36936 ft | 468 kts | 73° |
| 2026-05-04 10:05 | 55.22649 | 34.43542 | 36931 ft | 468 kts | 73° |
| 2026-05-04 10:05 | 55.24285 | 34.54615 | 36929 ft | 468 kts | 73° |
| 2026-05-04 10:06 | 55.25908 | 34.65673 | 36935 ft | 468 kts | 73° |
| 2026-05-04 10:06 | 55.27518 | 34.76711 | 36931 ft | 466 kts | 73° |
| 2026-05-04 10:08 | 55.32251 | 35.09659 | 33274 ft | 459 kts | 73° |
| 2026-05-04 10:08 | 55.33020 | 35.15097 | 32081 ft | 458 kts | 73° |
| 2026-05-04 10:08 | 55.33792 | 35.20559 | 30818 ft | 458 kts | 73° |
| 2026-05-04 10:08 | 55.34561 | 35.26010 | 29453 ft | 459 kts | 74° |
| 2026-05-04 10:09 | 55.35321 | 35.31421 | 28048 ft | 461 kts | 74° |
| 2026-05-04 10:09 | 55.36077 | 35.36831 | 27503 ft | 443 kts | 74° |
| 2026-05-04 10:09 | 55.36787 | 35.41921 | 27451 ft | 417 kts | 74° |
| 2026-05-04 10:09 | 55.37461 | 35.46772 | 27270 ft | 396 kts | 74° |
| 2026-05-04 10:10 | 55.38093 | 35.51322 | 27071 ft | 379 kts | 74° |
| 2026-05-04 10:10 | 55.38624 | 35.55863 | 26793 ft | 385 kts | 84° |
| 2026-05-04 10:10 | 55.38442 | 35.60636 | 26547 ft | 397 kts | 99° |
| 2026-05-04 10:10 | 55.37937 | 35.65472 | 26352 ft | 405 kts | 98° |
| 2026-05-04 10:11 | 55.37419 | 35.70393 | 26098 ft | 410 kts | 99° |
| 2026-05-04 10:11 | 55.36883 | 35.75239 | 25854 ft | 409 kts | 99° |
| 2026-05-04 10:11 | 55.36326 | 35.80138 | 25587 ft | 407 kts | 100° |
| 2026-05-04 10:11 | 55.35762 | 35.85010 | 25327 ft | 406 kts | 100° |
| 2026-05-04 10:12 | 55.35194 | 35.89867 | 25062 ft | 404 kts | 100° |
| 2026-05-04 10:12 | 55.34635 | 35.94699 | 24755 ft | 403 kts | 100° |
| 2026-05-04 10:12 | 55.34073 | 35.99533 | 24489 ft | 401 kts | 100° |
| 2026-05-04 10:12 | 55.33519 | 36.04282 | 24235 ft | 400 kts | 100° |
| 2026-05-04 10:13 | 55.32960 | 36.09064 | 23979 ft | 399 kts | 100° |
| 2026-05-04 10:13 | 55.32398 | 36.13837 | 23726 ft | 398 kts | 100° |
| 2026-05-04 10:13 | 55.31837 | 36.18599 | 23440 ft | 396 kts | 100° |
| 2026-05-04 10:13 | 55.31275 | 36.23342 | 23154 ft | 394 kts | 100° |
| 2026-05-04 10:14 | 55.30723 | 36.27992 | 22892 ft | 393 kts | 100° |
| 2026-05-04 10:14 | 55.30165 | 36.32674 | 22630 ft | 391 kts | 100° |
| 2026-05-04 10:16 | 55.26122 | 36.64784 | 20810 ft | 379 kts | 100° |
| 2026-05-04 10:16 | 55.25571 | 36.69292 | 20579 ft | 378 kts | 101° |
| 2026-05-04 10:16 | 55.25017 | 36.73790 | 20340 ft | 376 kts | 101° |
| 2026-05-04 10:16 | 55.24465 | 36.78265 | 20093 ft | 375 kts | 101° |
| 2026-05-04 10:17 | 55.23913 | 36.82728 | 19850 ft | 374 kts | 101° |
| 2026-05-04 10:17 | 55.23335 | 36.87163 | 19579 ft | 372 kts | 101° |
| 2026-05-04 10:19 | 55.19349 | 37.17867 | 18884 ft | 369 kts | 99° |
| 2026-05-04 10:19 | 55.19266 | 37.22319 | 18455 ft | 364 kts | 78° |
| 2026-05-04 10:19 | 55.19915 | 37.26553 | 18164 ft | 357 kts | 71° |
| 2026-05-04 10:19 | 55.20633 | 37.30649 | 17821 ft | 354 kts | 70° |
| 2026-05-04 10:20 | 55.21375 | 37.34769 | 17503 ft | 353 kts | 70° |
| 2026-05-04 10:20 | 55.22152 | 37.38846 | 17226 ft | 353 kts | 69° |
| 2026-05-04 10:20 | 55.22938 | 37.42907 | 16997 ft | 352 kts | 69° |
| 2026-05-04 10:20 | 55.23727 | 37.46972 | 16789 ft | 351 kts | 69° |
| 2026-05-04 10:21 | 55.24513 | 37.51035 | 16571 ft | 350 kts | 69° |
| 2026-05-04 10:21 | 55.25292 | 37.55066 | 16356 ft | 349 kts | 69° |
| 2026-05-04 10:21 | 55.26072 | 37.59104 | 16134 ft | 348 kts | 69° |
| 2026-05-04 10:21 | 55.26846 | 37.63058 | 15959 ft | 346 kts | 66° |
| 2026-05-04 10:22 | 55.29808 | 37.69400 | 15925 ft | 339 kts | 39° |
| 2026-05-04 10:22 | 55.31582 | 37.72141 | 15918 ft | 338 kts | 38° |
| 2026-05-04 10:22 | 55.33341 | 37.74881 | 15916 ft | 339 kts | 43° |
| 2026-05-04 10:23 | 55.34303 | 37.77111 | 15912 ft | 342 kts | 57° |
| 2026-05-04 10:23 | 55.35461 | 37.80725 | 15904 ft | 344 kts | 57° |
| 2026-05-04 10:25 | 55.29920 | 38.05446 | 14584 ft | 350 kts | 137° |
| 2026-05-04 10:25 | 55.28133 | 38.08342 | 14381 ft | 349 kts | 137° |
| 2026-05-04 10:25 | 55.26345 | 38.11216 | 14170 ft | 347 kts | 137° |
| 2026-05-04 10:25 | 55.24563 | 38.14070 | 13959 ft | 346 kts | 137° |
| 2026-05-04 10:26 | 55.22787 | 38.16908 | 13756 ft | 345 kts | 137° |
| 2026-05-04 10:26 | 55.21024 | 38.19721 | 13532 ft | 339 kts | 137° |
| 2026-05-04 10:26 | 55.19296 | 38.22472 | 13320 ft | 332 kts | 137° |
| 2026-05-04 10:26 | 55.17605 | 38.25162 | 13127 ft | 325 kts | 137° |
| 2026-05-04 10:27 | 55.15995 | 38.27808 | 12906 ft | 319 kts | 130° |
| 2026-05-04 10:27 | 55.14885 | 38.31142 | 12545 ft | 316 kts | 107° |
| 2026-05-04 10:27 | 55.14203 | 38.34786 | 12262 ft | 312 kts | 107° |
| 2026-05-04 10:27 | 55.13520 | 38.38381 | 11976 ft | 309 kts | 107° |
| 2026-05-04 10:28 | 55.12848 | 38.41944 | 11677 ft | 308 kts | 107° |
| 2026-05-04 10:28 | 55.12191 | 38.45445 | 11371 ft | 306 kts | 107° |
| 2026-05-04 10:28 | 55.11523 | 38.49013 | 11145 ft | 302 kts | 107° |
| 2026-05-04 10:28 | 55.10888 | 38.52393 | 11108 ft | 291 kts | 106° |
| 2026-05-04 10:29 | 55.10592 | 38.55817 | 10982 ft | 286 kts | 83° |
| 2026-05-04 10:29 | 55.11112 | 38.59176 | 10830 ft | 284 kts | 59° |
| 2026-05-04 10:29 | 55.12263 | 38.61851 | 10722 ft | 271 kts | 43° |
| 2026-05-04 10:29 | 55.13598 | 38.64149 | 10613 ft | 268 kts | 41° |
| 2026-05-04 10:30 | 55.14952 | 38.66388 | 10477 ft | 268 kts | 40° |
| 2026-05-04 10:30 | 55.16321 | 38.68601 | 10361 ft | 267 kts | 40° |
| 2026-05-04 10:30 | 55.17697 | 38.70800 | 10234 ft | 267 kts | 39° |
| 2026-05-04 10:30 | 55.19075 | 38.72984 | 10035 ft | 267 kts | 39° |
| 2026-05-04 10:31 | 55.20519 | 38.75024 | 9697 ft | 267 kts | 26° |
| 2026-05-04 10:31 | 55.22268 | 38.75871 | 9216 ft | 266 kts | 357° |
| 2026-05-04 10:32 | 55.30400 | 38.64029 | 6917 ft | 260 kts | 311° |
| 2026-05-04 10:33 | 55.31603 | 38.61700 | 6392 ft | 260 kts | 311° |
| 2026-05-04 10:33 | 55.32815 | 38.59341 | 5832 ft | 260 kts | 310° |
| 2026-05-04 10:33 | 55.34026 | 38.56971 | 5288 ft | 261 kts | 310° |
| 2026-05-04 10:33 | 55.35246 | 38.54581 | 4736 ft | 263 kts | 310° |
| 2026-05-04 10:34 | 55.36449 | 38.52221 | 4406 ft | 253 kts | 310° |
| 2026-05-04 10:34 | 55.37589 | 38.49981 | 4256 ft | 239 kts | 310° |
| 2026-05-04 10:34 | 55.38679 | 38.47866 | 4101 ft | 228 kts | 310° |
| 2026-05-04 10:34 | 55.39693 | 38.45881 | 3917 ft | 214 kts | 309° |
| 2026-05-04 10:35 | 55.40661 | 38.43996 | 3846 ft | 199 kts | 310° |
| 2026-05-04 10:35 | 55.41550 | 38.42274 | 3837 ft | 178 kts | 309° |
| 2026-05-04 10:35 | 55.42334 | 38.40731 | 3641 ft | 161 kts | 308° |
| 2026-05-04 10:35 | 55.43041 | 38.39303 | 3395 ft | 150 kts | 307° |
| 2026-05-04 10:36 | 55.43726 | 38.37946 | 3168 ft | 149 kts | 307° |
| 2026-05-04 10:36 | 55.44431 | 38.36584 | 2956 ft | 151 kts | 306° |
| 2026-05-04 10:36 | 55.45096 | 38.35157 | 2907 ft | 150 kts | 307° |
| 2026-05-04 10:36 | 55.45790 | 38.33787 | 2652 ft | 149 kts | 307° |
| 2026-05-04 10:37 | 55.46480 | 38.32392 | 2434 ft | 151 kts | 307° |
| 2026-05-04 10:37 | 55.47191 | 38.31002 | 2241 ft | 154 kts | 308° |
| 2026-05-04 10:37 | 55.47898 | 38.29608 | 2034 ft | 154 kts | 308° |
| 2026-05-04 10:37 | 55.48614 | 38.28197 | 1858 ft | 155 kts | 308° |
| 2026-05-04 10:39 | 55.52782 | 38.19926 | 690 ft | 146 kts | 310° |
| 2026-05-04 10:39 | 55.53461 | 38.18586 | 511 ft | 142 kts | 307° |
| 2026-05-04 10:39 | 55.54079 | 38.17355 | 401 ft | 120 kts | 311° |
| 2026-05-04 10:40 | 55.54481 | 38.16576 | 401 ft | 53 kts | 307° |
| 2026-05-04 10:40 | 55.54676 | 38.16193 | 400 ft | 41 kts | 311° |
| 2026-05-04 10:40 | 55.54867 | 38.15805 | 401 ft | 42 kts | 310° |
| 2026-05-04 10:40 | 55.54986 | 38.15524 | 401 ft | 28 kts | 282° |
| 2026-05-04 10:41 | 55.54930 | 38.15316 | 401 ft | 0 kts | 220° |
| 2026-05-04 10:51 | 55.55050 | 38.14875 | 401 ft | 13 kts | 315° |
| 2026-05-04 10:52 | 55.55116 | 38.14749 | 401 ft | 15 kts | 313° |
| 2026-05-04 10:52 | 55.55193 | 38.14600 | 401 ft | 17 kts | 312° |
| 2026-05-04 10:52 | 55.55278 | 38.14430 | 401 ft | 20 kts | 311° |
| 2026-05-04 10:54 | 55.56074 | 38.12794 | 401 ft | 21 kts | 282° |
| 2026-05-04 10:54 | 55.56155 | 38.12596 | 401 ft | 21 kts | 315° |
| 2026-05-04 10:56 | 55.56344 | 38.12045 | 400 ft | 0 kts | 226° |